sensor_id;sensor_type;location;lat;lon;timestamp;P1;durP1;ratioP1;P2;durP2;ratioP2
54745;SDS011;40640;48.130;11.356;2023-07-08T00:02:43;13.43;;;7.65;;
54745;SDS011;40640;48.130;11.356;2023-07-08T00:06:46;12.15;;;7.55;;
54745;SDS011;40640;48.130;11.356;2023-07-08T00:10:49;13.75;;;8.13;;
54745;SDS011;40640;48.130;11.356;2023-07-08T00:14:53;13.73;;;7.57;;
54745;SDS011;40640;48.130;11.356;2023-07-08T00:18:56;11.05;;;7.03;;
54745;SDS011;40640;48.130;11.356;2023-07-08T00:22:59;14.07;;;6.88;;
54745;SDS011;40640;48.130;11.356;2023-07-08T00:27:03;16.27;;;7.82;;
54745;SDS011;40640;48.130;11.356;2023-07-08T00:31:09;12.80;;;7.32;;
54745;SDS011;40640;48.130;11.356;2023-07-08T00:35:13;13.52;;;7.82;;
54745;SDS011;40640;48.130;11.356;2023-07-08T00:39:15;12.90;;;7.35;;
54745;SDS011;40640;48.130;11.356;2023-07-08T00:43:19;12.90;;;6.47;;
54745;SDS011;40640;48.130;11.356;2023-07-08T00:47:28;12.25;;;7.53;;
54745;SDS011;40640;48.130;11.356;2023-07-08T00:51:31;14.50;;;7.70;;
54745;SDS011;40640;48.130;11.356;2023-07-08T00:55:34;11.90;;;7.75;;
54745;SDS011;40640;48.130;11.356;2023-07-08T00:59:37;14.77;;;7.55;;
54745;SDS011;40640;48.130;11.356;2023-07-08T01:03:45;16.42;;;7.57;;
54745;SDS011;40640;48.130;11.356;2023-07-08T01:07:53;16.15;;;7.55;;
54745;SDS011;40640;48.130;11.356;2023-07-08T01:12:00;11.15;;;7.47;;
54745;SDS011;40640;48.130;11.356;2023-07-08T01:16:07;11.85;;;7.53;;
54745;SDS011;40640;48.130;11.356;2023-07-08T01:20:12;15.70;;;7.88;;
54745;SDS011;40640;48.130;11.356;2023-07-08T01:24:17;11.87;;;7.40;;
54745;SDS011;40640;48.130;11.356;2023-07-08T01:28:20;14.25;;;7.97;;
54745;SDS011;40640;48.130;11.356;2023-07-08T01:32:23;15.68;;;7.68;;
54745;SDS011;40640;48.130;11.356;2023-07-08T01:36:27;15.55;;;7.40;;
54745;SDS011;40640;48.130;11.356;2023-07-08T01:40:37;15.57;;;8.13;;
54745;SDS011;40640;48.130;11.356;2023-07-08T01:48:44;12.68;;;8.05;;
54745;SDS011;40640;48.130;11.356;2023-07-08T01:52:53;14.13;;;7.88;;
54745;SDS011;40640;48.130;11.356;2023-07-08T01:57:01;14.65;;;7.47;;
54745;SDS011;40640;48.130;11.356;2023-07-08T02:01:05;11.13;;;7.25;;
54745;SDS011;40640;48.130;11.356;2023-07-08T02:05:10;13.90;;;7.47;;
54745;SDS011;40640;48.130;11.356;2023-07-08T02:09:15;15.05;;;8.13;;
54745;SDS011;40640;48.130;11.356;2023-07-08T02:13:19;13.40;;;7.65;;
54745;SDS011;40640;48.130;11.356;2023-07-08T02:17:23;13.95;;;7.85;;
54745;SDS011;40640;48.130;11.356;2023-07-08T02:21:25;13.25;;;8.02;;
54745;SDS011;40640;48.130;11.356;2023-07-08T02:25:32;13.43;;;7.70;;
54745;SDS011;40640;48.130;11.356;2023-07-08T02:29:36;14.18;;;7.75;;
54745;SDS011;40640;48.130;11.356;2023-07-08T02:33:40;18.95;;;7.82;;
54745;SDS011;40640;48.130;11.356;2023-07-08T02:37:45;12.80;;;8.20;;
54745;SDS011;40640;48.130;11.356;2023-07-08T02:41:48;14.88;;;8.50;;
54745;SDS011;40640;48.130;11.356;2023-07-08T02:45:52;19.08;;;7.90;;
54745;SDS011;40640;48.130;11.356;2023-07-08T02:49:55;15.57;;;8.23;;
54745;SDS011;40640;48.130;11.356;2023-07-08T02:53:58;15.07;;;7.97;;
54745;SDS011;40640;48.130;11.356;2023-07-08T02:58:01;11.82;;;7.80;;
54745;SDS011;40640;48.130;11.356;2023-07-08T03:02:05;12.55;;;7.93;;
54745;SDS011;40640;48.130;11.356;2023-07-08T03:06:08;14.18;;;7.65;;
54745;SDS011;40640;48.130;11.356;2023-07-08T03:10:11;14.65;;;8.13;;
54745;SDS011;40640;48.130;11.356;2023-07-08T03:14:14;13.10;;;7.95;;
54745;SDS011;40640;48.130;11.356;2023-07-08T03:18:18;13.75;;;7.57;;
54745;SDS011;40640;48.130;11.356;2023-07-08T03:22:22;16.73;;;8.55;;
54745;SDS011;40640;48.130;11.356;2023-07-08T03:26:25;12.90;;;8.13;;
54745;SDS011;40640;48.130;11.356;2023-07-08T03:30:33;14.65;;;8.27;;
54745;SDS011;40640;48.130;11.356;2023-07-08T03:34:38;14.30;;;7.80;;
54745;SDS011;40640;48.130;11.356;2023-07-08T03:38:41;18.95;;;8.05;;
54745;SDS011;40640;48.130;11.356;2023-07-08T03:42:46;17.75;;;8.27;;
54745;SDS011;40640;48.130;11.356;2023-07-08T03:46:49;21.08;;;8.35;;
54745;SDS011;40640;48.130;11.356;2023-07-08T03:50:55;14.95;;;8.80;;
54745;SDS011;40640;48.130;11.356;2023-07-08T03:54:58;13.10;;;7.38;;
54745;SDS011;40640;48.130;11.356;2023-07-08T03:59:04;15.25;;;8.50;;
54745;SDS011;40640;48.130;11.356;2023-07-08T04:03:08;15.00;;;8.05;;
54745;SDS011;40640;48.130;11.356;2023-07-08T04:11:19;13.15;;;7.80;;
54745;SDS011;40640;48.130;11.356;2023-07-08T04:15:24;14.55;;;7.20;;
54745;SDS011;40640;48.130;11.356;2023-07-08T04:19:29;16.10;;;8.68;;
54745;SDS011;40640;48.130;11.356;2023-07-08T04:23:33;18.83;;;10.77;;
54745;SDS011;40640;48.130;11.356;2023-07-08T04:27:36;18.85;;;8.35;;
54745;SDS011;40640;48.130;11.356;2023-07-08T04:31:39;17.63;;;8.90;;
54745;SDS011;40640;48.130;11.356;2023-07-08T04:35:42;16.65;;;8.23;;
54745;SDS011;40640;48.130;11.356;2023-07-08T04:39:47;17.75;;;8.70;;
54745;SDS011;40640;48.130;11.356;2023-07-08T04:43:50;14.48;;;8.93;;
54745;SDS011;40640;48.130;11.356;2023-07-08T04:47:54;12.65;;;7.75;;
54745;SDS011;40640;48.130;11.356;2023-07-08T04:51:57;17.85;;;8.93;;
54745;SDS011;40640;48.130;11.356;2023-07-08T04:56:02;17.27;;;8.85;;
54745;SDS011;40640;48.130;11.356;2023-07-08T05:00:05;17.45;;;8.38;;
54745;SDS011;40640;48.130;11.356;2023-07-08T05:04:12;15.52;;;8.35;;
54745;SDS011;40640;48.130;11.356;2023-07-08T05:08:16;21.08;;;8.93;;
54745;SDS011;40640;48.130;11.356;2023-07-08T05:12:20;18.13;;;9.25;;
54745;SDS011;40640;48.130;11.356;2023-07-08T05:16:23;17.00;;;9.00;;
54745;SDS011;40640;48.130;11.356;2023-07-08T05:20:26;15.10;;;8.60;;
54745;SDS011;40640;48.130;11.356;2023-07-08T05:24:30;14.02;;;8.32;;
54745;SDS011;40640;48.130;11.356;2023-07-08T05:28:34;15.20;;;8.10;;
54745;SDS011;40640;48.130;11.356;2023-07-08T05:32:37;14.02;;;8.23;;
54745;SDS011;40640;48.130;11.356;2023-07-08T05:36:40;13.15;;;8.18;;
54745;SDS011;40640;48.130;11.356;2023-07-08T05:40:43;13.52;;;8.38;;
54745;SDS011;40640;48.130;11.356;2023-07-08T05:44:52;17.48;;;8.65;;
54745;SDS011;40640;48.130;11.356;2023-07-08T05:48:56;16.67;;;7.50;;
54745;SDS011;40640;48.130;11.356;2023-07-08T05:53:02;15.40;;;8.18;;
54745;SDS011;40640;48.130;11.356;2023-07-08T05:57:05;15.23;;;7.90;;
54745;SDS011;40640;48.130;11.356;2023-07-08T06:01:10;12.20;;;7.85;;
54745;SDS011;40640;48.130;11.356;2023-07-08T06:05:15;14.07;;;8.10;;
54745;SDS011;40640;48.130;11.356;2023-07-08T06:09:18;14.45;;;7.40;;
54745;SDS011;40640;48.130;11.356;2023-07-08T06:13:20;15.27;;;7.60;;
54745;SDS011;40640;48.130;11.356;2023-07-08T06:17:25;12.95;;;7.22;;
54745;SDS011;40640;48.130;11.356;2023-07-08T06:21:28;13.60;;;7.90;;
54745;SDS011;40640;48.130;11.356;2023-07-08T06:25:31;17.33;;;8.63;;
54745;SDS011;40640;48.130;11.356;2023-07-08T06:29:35;15.68;;;8.10;;
54745;SDS011;40640;48.130;11.356;2023-07-08T06:33:39;12.63;;;8.05;;
54745;SDS011;40640;48.130;11.356;2023-07-08T06:37:42;16.92;;;7.95;;
54745;SDS011;40640;48.130;11.356;2023-07-08T06:41:45;14.35;;;7.88;;
54745;SDS011;40640;48.130;11.356;2023-07-08T06:45:50;13.60;;;8.25;;
54745;SDS011;40640;48.130;11.356;2023-07-08T06:49:54;14.65;;;8.35;;
54745;SDS011;40640;48.130;11.356;2023-07-08T06:54:00;14.82;;;8.52;;
54745;SDS011;40640;48.130;11.356;2023-07-08T06:58:06;14.63;;;8.30;;
54745;SDS011;40640;48.130;11.356;2023-07-08T07:02:08;17.88;;;8.93;;
54745;SDS011;40640;48.130;11.356;2023-07-08T07:06:13;14.80;;;8.65;;
54745;SDS011;40640;48.130;11.356;2023-07-08T07:10:16;15.77;;;7.95;;
54745;SDS011;40640;48.130;11.356;2023-07-08T07:14:19;15.88;;;8.02;;
54745;SDS011;40640;48.130;11.356;2023-07-08T07:18:24;13.52;;;8.60;;
54745;SDS011;40640;48.130;11.356;2023-07-08T07:22:29;14.52;;;9.10;;
54745;SDS011;40640;48.130;11.356;2023-07-08T07:26:32;16.27;;;8.48;;
54745;SDS011;40640;48.130;11.356;2023-07-08T07:30:35;14.25;;;9.13;;
54745;SDS011;40640;48.130;11.356;2023-07-08T07:34:38;11.23;;;7.72;;
54745;SDS011;40640;48.130;11.356;2023-07-08T07:38:42;13.90;;;8.10;;
54745;SDS011;40640;48.130;11.356;2023-07-08T07:42:46;15.65;;;8.45;;
54745;SDS011;40640;48.130;11.356;2023-07-08T07:46:49;17.13;;;8.38;;
54745;SDS011;40640;48.130;11.356;2023-07-08T07:50:55;14.75;;;8.60;;
54745;SDS011;40640;48.130;11.356;2023-07-08T07:54:59;12.90;;;8.63;;
54745;SDS011;40640;48.130;11.356;2023-07-08T07:59:02;12.85;;;7.75;;
54745;SDS011;40640;48.130;11.356;2023-07-08T08:03:05;13.55;;;8.32;;
54745;SDS011;40640;48.130;11.356;2023-07-08T08:07:08;12.40;;;8.05;;
54745;SDS011;40640;48.130;11.356;2023-07-08T08:11:13;11.65;;;8.32;;
54745;SDS011;40640;48.130;11.356;2023-07-08T08:15:16;12.43;;;7.60;;
54745;SDS011;40640;48.130;11.356;2023-07-08T08:19:19;10.75;;;7.80;;
54745;SDS011;40640;48.130;11.356;2023-07-08T08:23:22;14.15;;;7.47;;
54745;SDS011;40640;48.130;11.356;2023-07-08T08:27:26;11.73;;;7.68;;
54745;SDS011;40640;48.130;11.356;2023-07-08T08:31:29;9.73;;;7.18;;
54745;SDS011;40640;48.130;11.356;2023-07-08T08:35:32;12.75;;;7.75;;
54745;SDS011;40640;48.130;11.356;2023-07-08T08:39:35;12.90;;;7.63;;
54745;SDS011;40640;48.130;11.356;2023-07-08T08:43:39;15.32;;;7.65;;
54745;SDS011;40640;48.130;11.356;2023-07-08T08:47:45;14.18;;;7.50;;
54745;SDS011;40640;48.130;11.356;2023-07-08T08:51:51;13.07;;;7.75;;
54745;SDS011;40640;48.130;11.356;2023-07-08T08:56:08;14.82;;;8.60;;
54745;SDS011;40640;48.130;11.356;2023-07-08T09:00:23;14.85;;;7.45;;
54745;SDS011;40640;48.130;11.356;2023-07-08T09:04:32;12.63;;;7.75;;
54745;SDS011;40640;48.130;11.356;2023-07-08T09:08:38;12.90;;;7.75;;
54745;SDS011;40640;48.130;11.356;2023-07-08T09:12:42;11.38;;;7.13;;
54745;SDS011;40640;48.130;11.356;2023-07-08T09:16:50;10.98;;;7.75;;
54745;SDS011;40640;48.130;11.356;2023-07-08T09:20:58;11.52;;;8.27;;
54745;SDS011;40640;48.130;11.356;2023-07-08T09:25:22;11.20;;;7.10;;
54745;SDS011;40640;48.130;11.356;2023-07-08T09:29:28;10.55;;;7.47;;
54745;SDS011;40640;48.130;11.356;2023-07-08T09:33:38;11.30;;;8.00;;
54745;SDS011;40640;48.130;11.356;2023-07-08T09:37:44;10.27;;;6.85;;
54745;SDS011;40640;48.130;11.356;2023-07-08T09:41:48;13.95;;;7.57;;
54745;SDS011;40640;48.130;11.356;2023-07-08T09:45:52;14.30;;;7.55;;
54745;SDS011;40640;48.130;11.356;2023-07-08T09:50:02;11.50;;;7.18;;
54745;SDS011;40640;48.130;11.356;2023-07-08T09:54:13;12.00;;;6.97;;
54745;SDS011;40640;48.130;11.356;2023-07-08T09:58:19;10.45;;;6.35;;
54745;SDS011;40640;48.130;11.356;2023-07-08T10:02:27;13.95;;;6.18;;
54745;SDS011;40640;48.130;11.356;2023-07-08T10:06:34;10.32;;;5.88;;
54745;SDS011;40640;48.130;11.356;2023-07-08T10:10:37;12.30;;;5.47;;
54745;SDS011;40640;48.130;11.356;2023-07-08T10:14:41;11.95;;;5.70;;
54745;SDS011;40640;48.130;11.356;2023-07-08T10:18:48;8.27;;;6.03;;
54745;SDS011;40640;48.130;11.356;2023-07-08T10:22:55;8.30;;;5.32;;
54745;SDS011;40640;48.130;11.356;2023-07-08T10:27:08;17.02;;;5.22;;
54745;SDS011;40640;48.130;11.356;2023-07-08T10:31:21;14.32;;;5.72;;
54745;SDS011;40640;48.130;11.356;2023-07-08T10:35:32;13.35;;;5.85;;
54745;SDS011;40640;48.130;11.356;2023-07-08T10:44:04;8.48;;;5.22;;
54745;SDS011;40640;48.130;11.356;2023-07-08T10:48:17;9.65;;;5.25;;
54745;SDS011;40640;48.130;11.356;2023-07-08T10:52:35;7.38;;;4.93;;
54745;SDS011;40640;48.130;11.356;2023-07-08T10:56:49;9.88;;;5.30;;
54745;SDS011;40640;48.130;11.356;2023-07-08T11:00:57;7.88;;;5.25;;
54745;SDS011;40640;48.130;11.356;2023-07-08T11:05:16;6.93;;;4.88;;
54745;SDS011;40640;48.130;11.356;2023-07-08T11:09:30;9.77;;;5.25;;
54745;SDS011;40640;48.130;11.356;2023-07-08T11:13:41;12.05;;;4.75;;
54745;SDS011;40640;48.130;11.356;2023-07-08T11:17:52;8.38;;;5.13;;
54745;SDS011;40640;48.130;11.356;2023-07-08T11:21:59;8.73;;;5.13;;
54745;SDS011;40640;48.130;11.356;2023-07-08T11:26:17;8.82;;;5.35;;
54745;SDS011;40640;48.130;11.356;2023-07-08T11:30:27;12.68;;;5.57;;
54745;SDS011;40640;48.130;11.356;2023-07-08T11:34:32;10.18;;;5.40;;
54745;SDS011;40640;48.130;11.356;2023-07-08T11:42:50;9.70;;;5.72;;
54745;SDS011;40640;48.130;11.356;2023-07-08T11:47:02;9.27;;;5.55;;
54745;SDS011;40640;48.130;11.356;2023-07-08T11:51:16;9.60;;;5.77;;
54745;SDS011;40640;48.130;11.356;2023-07-08T11:55:23;8.57;;;5.40;;
54745;SDS011;40640;48.130;11.356;2023-07-08T11:59:31;8.63;;;5.68;;
54745;SDS011;40640;48.130;11.356;2023-07-08T12:03:47;9.55;;;6.78;;
54745;SDS011;40640;48.130;11.356;2023-07-08T12:11:59;9.60;;;6.75;;
54745;SDS011;40640;48.130;11.356;2023-07-08T12:16:07;10.55;;;7.18;;
54745;SDS011;40640;48.130;11.356;2023-07-08T12:20:17;11.85;;;7.43;;
54745;SDS011;40640;48.130;11.356;2023-07-08T12:24:23;9.05;;;8.15;;
54745;SDS011;40640;48.130;11.356;2023-07-08T12:28:28;8.88;;;7.97;;
54745;SDS011;40640;48.130;11.356;2023-07-08T12:32:31;8.38;;;7.18;;
54745;SDS011;40640;48.130;11.356;2023-07-08T12:36:36;9.20;;;7.00;;
54745;SDS011;40640;48.130;11.356;2023-07-08T12:40:40;7.18;;;6.38;;
54745;SDS011;40640;48.130;11.356;2023-07-08T12:44:43;7.88;;;7.10;;
54745;SDS011;40640;48.130;11.356;2023-07-08T12:48:46;7.68;;;5.65;;
54745;SDS011;40640;48.130;11.356;2023-07-08T12:52:51;6.43;;;5.53;;
54745;SDS011;40640;48.130;11.356;2023-07-08T12:56:54;8.30;;;5.40;;
54745;SDS011;40640;48.130;11.356;2023-07-08T13:05:02;9.55;;;5.40;;
54745;SDS011;40640;48.130;11.356;2023-07-08T13:09:13;8.45;;;6.10;;
54745;SDS011;40640;48.130;11.356;2023-07-08T13:13:25;8.68;;;6.18;;
54745;SDS011;40640;48.130;11.356;2023-07-08T13:17:31;10.18;;;6.32;;
54745;SDS011;40640;48.130;11.356;2023-07-08T13:25:39;9.20;;;5.10;;
54745;SDS011;40640;48.130;11.356;2023-07-08T13:29:42;8.20;;;5.45;;
54745;SDS011;40640;48.130;11.356;2023-07-08T13:33:46;7.00;;;5.07;;
54745;SDS011;40640;48.130;11.356;2023-07-08T13:41:54;11.65;;;5.80;;
54745;SDS011;40640;48.130;11.356;2023-07-08T13:45:58;11.07;;;5.43;;
54745;SDS011;40640;48.130;11.356;2023-07-08T13:50:04;13.27;;;6.67;;
54745;SDS011;40640;48.130;11.356;2023-07-08T13:54:20;9.68;;;5.72;;
54745;SDS011;40640;48.130;11.356;2023-07-08T13:58:28;10.23;;;5.68;;
54745;SDS011;40640;48.130;11.356;2023-07-08T14:02:32;10.73;;;6.25;;
54745;SDS011;40640;48.130;11.356;2023-07-08T14:06:36;7.68;;;6.38;;
54745;SDS011;40640;48.130;11.356;2023-07-08T14:10:40;12.45;;;6.00;;
54745;SDS011;40640;48.130;11.356;2023-07-08T14:14:44;9.48;;;6.00;;
54745;SDS011;40640;48.130;11.356;2023-07-08T14:18:47;8.90;;;6.83;;
54745;SDS011;40640;48.130;11.356;2023-07-08T14:22:50;8.02;;;5.97;;
54745;SDS011;40640;48.130;11.356;2023-07-08T14:26:54;11.35;;;5.85;;
54745;SDS011;40640;48.130;11.356;2023-07-08T14:30:58;9.00;;;5.53;;
54745;SDS011;40640;48.130;11.356;2023-07-08T14:39:14;13.30;;;5.53;;
54745;SDS011;40640;48.130;11.356;2023-07-08T14:43:20;10.27;;;5.68;;
54745;SDS011;40640;48.130;11.356;2023-07-08T14:47:28;9.23;;;6.22;;
54745;SDS011;40640;48.130;11.356;2023-07-08T14:51:31;8.23;;;5.47;;
54745;SDS011;40640;48.130;11.356;2023-07-08T14:55:34;8.80;;;5.45;;
54745;SDS011;40640;48.130;11.356;2023-07-08T14:59:38;12.80;;;5.85;;
54745;SDS011;40640;48.130;11.356;2023-07-08T15:03:42;8.98;;;6.28;;
54745;SDS011;40640;48.130;11.356;2023-07-08T15:07:48;10.47;;;5.30;;
54745;SDS011;40640;48.130;11.356;2023-07-08T15:11:51;13.07;;;5.93;;
54745;SDS011;40640;48.130;11.356;2023-07-08T15:15:54;9.75;;;5.78;;
54745;SDS011;40640;48.130;11.356;2023-07-08T15:19:58;14.13;;;6.20;;
54745;SDS011;40640;48.130;11.356;2023-07-08T15:24:02;11.63;;;5.18;;
54745;SDS011;40640;48.130;11.356;2023-07-08T15:28:07;9.18;;;5.47;;
54745;SDS011;40640;48.130;11.356;2023-07-08T15:32:11;11.07;;;5.90;;
54745;SDS011;40640;48.130;11.356;2023-07-08T15:36:21;11.00;;;5.82;;
54745;SDS011;40640;48.130;11.356;2023-07-08T15:40:24;11.15;;;4.90;;
54745;SDS011;40640;48.130;11.356;2023-07-08T15:44:28;11.30;;;5.30;;
54745;SDS011;40640;48.130;11.356;2023-07-08T15:48:31;9.57;;;5.85;;
54745;SDS011;40640;48.130;11.356;2023-07-08T15:52:35;9.75;;;5.75;;
54745;SDS011;40640;48.130;11.356;2023-07-08T15:56:38;11.73;;;5.65;;
54745;SDS011;40640;48.130;11.356;2023-07-08T16:00:42;13.55;;;5.45;;
54745;SDS011;40640;48.130;11.356;2023-07-08T16:04:45;8.40;;;5.85;;
54745;SDS011;40640;48.130;11.356;2023-07-08T16:08:50;8.68;;;5.82;;
54745;SDS011;40640;48.130;11.356;2023-07-08T16:12:53;7.50;;;4.57;;
54745;SDS011;40640;48.130;11.356;2023-07-08T16:16:58;9.57;;;4.63;;
54745;SDS011;40640;48.130;11.356;2023-07-08T16:21:04;12.55;;;5.65;;
54745;SDS011;40640;48.130;11.356;2023-07-08T16:25:12;7.60;;;4.90;;
54745;SDS011;40640;48.130;11.356;2023-07-08T16:29:16;10.80;;;4.93;;
54745;SDS011;40640;48.130;11.356;2023-07-08T16:33:22;15.18;;;8.75;;
54745;SDS011;40640;48.130;11.356;2023-07-08T16:37:26;13.77;;;5.97;;
54745;SDS011;40640;48.130;11.356;2023-07-08T16:41:31;8.07;;;4.85;;
54745;SDS011;40640;48.130;11.356;2023-07-08T16:45:37;12.63;;;5.28;;
54745;SDS011;40640;48.130;11.356;2023-07-08T16:49:40;10.38;;;5.28;;
54745;SDS011;40640;48.130;11.356;2023-07-08T16:53:44;9.75;;;5.22;;
54745;SDS011;40640;48.130;11.356;2023-07-08T16:57:50;10.60;;;4.68;;
54745;SDS011;40640;48.130;11.356;2023-07-08T17:01:54;7.75;;;4.60;;
54745;SDS011;40640;48.130;11.356;2023-07-08T17:05:57;7.00;;;4.38;;
54745;SDS011;40640;48.130;11.356;2023-07-08T17:10:00;10.07;;;4.72;;
54745;SDS011;40640;48.130;11.356;2023-07-08T17:14:05;9.35;;;4.40;;
54745;SDS011;40640;48.130;11.356;2023-07-08T17:18:11;10.55;;;4.35;;
54745;SDS011;40640;48.130;11.356;2023-07-08T17:22:22;9.02;;;4.47;;
54745;SDS011;40640;48.130;11.356;2023-07-08T17:26:25;8.75;;;4.05;;
54745;SDS011;40640;48.130;11.356;2023-07-08T17:30:30;7.70;;;4.55;;
54745;SDS011;40640;48.130;11.356;2023-07-08T17:34:34;8.85;;;5.07;;
54745;SDS011;40640;48.130;11.356;2023-07-08T17:38:42;11.43;;;5.70;;
54745;SDS011;40640;48.130;11.356;2023-07-08T17:42:47;8.68;;;4.65;;
54745;SDS011;40640;48.130;11.356;2023-07-08T17:46:54;6.63;;;4.38;;
54745;SDS011;40640;48.130;11.356;2023-07-08T17:50:59;13.40;;;4.15;;
54745;SDS011;40640;48.130;11.356;2023-07-08T17:55:04;11.65;;;3.97;;
54745;SDS011;40640;48.130;11.356;2023-07-08T17:59:10;10.38;;;4.10;;
54745;SDS011;40640;48.130;11.356;2023-07-08T18:03:18;15.93;;;4.25;;
54745;SDS011;40640;48.130;11.356;2023-07-08T18:07:21;9.13;;;4.90;;
54745;SDS011;40640;48.130;11.356;2023-07-08T18:11:27;16.77;;;4.40;;
54745;SDS011;40640;48.130;11.356;2023-07-08T18:15:31;7.80;;;4.20;;
54745;SDS011;40640;48.130;11.356;2023-07-08T18:19:41;7.43;;;4.28;;
54745;SDS011;40640;48.130;11.356;2023-07-08T18:23:44;9.38;;;5.35;;
54745;SDS011;40640;48.130;11.356;2023-07-08T18:27:47;13.20;;;4.72;;
54745;SDS011;40640;48.130;11.356;2023-07-08T18:31:51;11.02;;;4.95;;
54745;SDS011;40640;48.130;11.356;2023-07-08T18:35:55;8.55;;;5.00;;
54745;SDS011;40640;48.130;11.356;2023-07-08T18:39:58;16.83;;;6.43;;
54745;SDS011;40640;48.130;11.356;2023-07-08T18:44:01;11.85;;;5.75;;
54745;SDS011;40640;48.130;11.356;2023-07-08T18:48:08;12.63;;;5.35;;
54745;SDS011;40640;48.130;11.356;2023-07-08T18:52:14;12.20;;;4.95;;
54745;SDS011;40640;48.130;11.356;2023-07-08T18:56:18;9.27;;;5.10;;
54745;SDS011;40640;48.130;11.356;2023-07-08T19:00:21;10.88;;;5.60;;
54745;SDS011;40640;48.130;11.356;2023-07-08T19:04:25;19.73;;;6.20;;
54745;SDS011;40640;48.130;11.356;2023-07-08T19:08:31;15.20;;;7.40;;
54745;SDS011;40640;48.130;11.356;2023-07-08T19:12:34;12.75;;;5.45;;
54745;SDS011;40640;48.130;11.356;2023-07-08T19:16:38;10.40;;;5.38;;
54745;SDS011;40640;48.130;11.356;2023-07-08T19:20:42;10.57;;;5.07;;
54745;SDS011;40640;48.130;11.356;2023-07-08T19:24:48;10.23;;;4.93;;
54745;SDS011;40640;48.130;11.356;2023-07-08T19:28:54;9.35;;;5.63;;
54745;SDS011;40640;48.130;11.356;2023-07-08T19:32:58;10.43;;;5.20;;
54745;SDS011;40640;48.130;11.356;2023-07-08T19:37:02;8.52;;;4.47;;
54745;SDS011;40640;48.130;11.356;2023-07-08T19:41:08;14.80;;;5.32;;
54745;SDS011;40640;48.130;11.356;2023-07-08T19:45:17;11.20;;;5.20;;
54745;SDS011;40640;48.130;11.356;2023-07-08T19:49:22;17.63;;;6.00;;
54745;SDS011;40640;48.130;11.356;2023-07-08T19:53:25;14.57;;;6.32;;
54745;SDS011;40640;48.130;11.356;2023-07-08T19:57:29;13.13;;;5.47;;
54745;SDS011;40640;48.130;11.356;2023-07-08T20:01:46;14.00;;;6.25;;
54745;SDS011;40640;48.130;11.356;2023-07-08T20:05:49;12.60;;;6.45;;
54745;SDS011;40640;48.130;11.356;2023-07-08T20:09:52;14.65;;;9.07;;
54745;SDS011;40640;48.130;11.356;2023-07-08T20:13:56;12.15;;;7.25;;
54745;SDS011;40640;48.130;11.356;2023-07-08T20:17:59;17.73;;;7.32;;
54745;SDS011;40640;48.130;11.356;2023-07-08T20:22:02;13.32;;;6.82;;
54745;SDS011;40640;48.130;11.356;2023-07-08T20:26:24;13.35;;;7.00;;
54745;SDS011;40640;48.130;11.356;2023-07-08T20:30:31;11.30;;;6.32;;
54745;SDS011;40640;48.130;11.356;2023-07-08T20:34:34;9.93;;;5.43;;
54745;SDS011;40640;48.130;11.356;2023-07-08T20:38:38;13.52;;;6.68;;
54745;SDS011;40640;48.130;11.356;2023-07-08T20:42:41;13.95;;;6.43;;
54745;SDS011;40640;48.130;11.356;2023-07-08T20:46:46;12.05;;;7.25;;
54745;SDS011;40640;48.130;11.356;2023-07-08T20:50:50;10.85;;;6.28;;
54745;SDS011;40640;48.130;11.356;2023-07-08T20:54:53;11.32;;;5.82;;
54745;SDS011;40640;48.130;11.356;2023-07-08T20:58:56;13.50;;;6.55;;
54745;SDS011;40640;48.130;11.356;2023-07-08T21:03:04;11.35;;;5.85;;
54745;SDS011;40640;48.130;11.356;2023-07-08T21:07:10;12.15;;;6.88;;
54745;SDS011;40640;48.130;11.356;2023-07-08T21:11:13;11.40;;;6.53;;
54745;SDS011;40640;48.130;11.356;2023-07-08T21:15:17;13.00;;;6.65;;
54745;SDS011;40640;48.130;11.356;2023-07-08T21:19:23;14.80;;;7.80;;
54745;SDS011;40640;48.130;11.356;2023-07-08T21:23:26;11.98;;;6.65;;
54745;SDS011;40640;48.130;11.356;2023-07-08T21:27:31;12.82;;;6.72;;
54745;SDS011;40640;48.130;11.356;2023-07-08T21:31:34;11.85;;;6.85;;
54745;SDS011;40640;48.130;11.356;2023-07-08T21:35:39;15.65;;;9.20;;
54745;SDS011;40640;48.130;11.356;2023-07-08T21:39:43;11.07;;;6.65;;
54745;SDS011;40640;48.130;11.356;2023-07-08T21:43:47;18.13;;;6.78;;
54745;SDS011;40640;48.130;11.356;2023-07-08T21:47:50;13.55;;;8.05;;
54745;SDS011;40640;48.130;11.356;2023-07-08T21:51:55;11.50;;;7.28;;
54745;SDS011;40640;48.130;11.356;2023-07-08T21:55:58;25.98;;;11.40;;
54745;SDS011;40640;48.130;11.356;2023-07-08T22:00:03;18.52;;;9.80;;
54745;SDS011;40640;48.130;11.356;2023-07-08T22:04:12;14.48;;;6.43;;
54745;SDS011;40640;48.130;11.356;2023-07-08T22:08:19;18.98;;;8.45;;
54745;SDS011;40640;48.130;11.356;2023-07-08T22:12:24;17.08;;;6.40;;
54745;SDS011;40640;48.130;11.356;2023-07-08T22:16:28;13.63;;;6.50;;
54745;SDS011;40640;48.130;11.356;2023-07-08T22:20:32;10.18;;;5.88;;
54745;SDS011;40640;48.130;11.356;2023-07-08T22:24:37;19.23;;;7.57;;
54745;SDS011;40640;48.130;11.356;2023-07-08T22:28:42;10.25;;;5.60;;
54745;SDS011;40640;48.130;11.356;2023-07-08T22:32:49;10.77;;;5.85;;
54745;SDS011;40640;48.130;11.356;2023-07-08T22:36:52;12.90;;;5.90;;
54745;SDS011;40640;48.130;11.356;2023-07-08T22:40:58;11.38;;;5.78;;
54745;SDS011;40640;48.130;11.356;2023-07-08T22:45:02;17.08;;;5.90;;
54745;SDS011;40640;48.130;11.356;2023-07-08T22:49:05;12.63;;;5.75;;
54745;SDS011;40640;48.130;11.356;2023-07-08T22:53:08;17.25;;;9.52;;
54745;SDS011;40640;48.130;11.356;2023-07-08T22:57:16;15.65;;;9.57;;
54745;SDS011;40640;48.130;11.356;2023-07-08T23:01:20;11.82;;;6.05;;
54745;SDS011;40640;48.130;11.356;2023-07-08T23:05:24;10.18;;;6.10;;
54745;SDS011;40640;48.130;11.356;2023-07-08T23:09:29;10.35;;;5.50;;
54745;SDS011;40640;48.130;11.356;2023-07-08T23:13:35;13.43;;;5.80;;
54745;SDS011;40640;48.130;11.356;2023-07-08T23:17:40;15.90;;;5.60;;
54745;SDS011;40640;48.130;11.356;2023-07-08T23:21:45;11.05;;;5.28;;
54745;SDS011;40640;48.130;11.356;2023-07-08T23:25:48;15.80;;;8.18;;
54745;SDS011;40640;48.130;11.356;2023-07-08T23:29:53;25.77;;;12.77;;
54745;SDS011;40640;48.130;11.356;2023-07-08T23:33:56;22.65;;;9.52;;
54745;SDS011;40640;48.130;11.356;2023-07-08T23:38:00;16.83;;;7.32;;
54745;SDS011;40640;48.130;11.356;2023-07-08T23:42:07;17.15;;;6.45;;
54745;SDS011;40640;48.130;11.356;2023-07-08T23:46:18;11.65;;;5.95;;
54745;SDS011;40640;48.130;11.356;2023-07-08T23:50:25;11.60;;;5.68;;
54745;SDS011;40640;48.130;11.356;2023-07-08T23:54:29;25.23;;;9.45;;
54745;SDS011;40640;48.130;11.356;2023-07-08T23:58:35;16.50;;;7.25;;
